createdAt,value
2023-04-30T00:00:32.919Z,101303.66
2023-04-30T00:02:59.286Z,101305.41
2023-04-30T00:05:25.601Z,101302.03
2023-04-30T00:07:51.977Z,101309.53
2023-04-30T00:10:18.310Z,101314.94
2023-04-30T00:12:44.617Z,101317.72
2023-04-30T00:15:11.123Z,101320.97
2023-04-30T00:17:37.495Z,101317.72
2023-04-30T00:20:04.567Z,101321.34
2023-04-30T00:22:30.886Z,101320.66
2023-04-30T00:24:57.169Z,101313.19
2023-04-30T00:27:23.511Z,101322.91
2023-04-30T00:29:49.829Z,101323.75
2023-04-30T00:32:16.167Z,101321.13
2023-04-30T00:34:42.534Z,101323.84
2023-04-30T00:37:08.854Z,101329.13
2023-04-30T00:39:35.156Z,101325.94
2023-04-30T00:42:01.464Z,101325.69
2023-04-30T00:44:27.772Z,101330.41
2023-04-30T00:46:54.094Z,101337.19
2023-04-30T00:49:20.420Z,101334.09
2023-04-30T00:51:46.772Z,101332.34
2023-04-30T00:54:13.231Z,101344.44
2023-04-30T00:56:39.794Z,101337.00
2023-04-30T00:59:06.199Z,101344.81
2023-04-30T01:01:32.913Z,101341.66
2023-04-30T01:03:59.365Z,101347.66
2023-04-30T01:06:26.137Z,101346.91
2023-04-30T01:08:53.614Z,101354.59
2023-04-30T01:11:25.819Z,101351.16
2023-04-30T01:14:01.234Z,101348.22
2023-04-30T01:16:33.175Z,101353.13
2023-04-30T01:19:04.965Z,101358.59
2023-04-30T01:21:32.556Z,101355.09
2023-04-30T01:24:11.498Z,101351.94
2023-04-30T01:26:53.282Z,101356.50
2023-04-30T01:29:20.309Z,101355.34
2023-04-30T01:31:46.653Z,101360.63
2023-04-30T01:34:13.048Z,101354.31
2023-04-30T01:36:45.798Z,101356.88
2023-04-30T01:39:35.700Z,101359.78
2023-04-30T01:42:30.608Z,101352.75
2023-04-30T01:45:18.282Z,101360.47
2023-04-30T01:48:18.726Z,101356.03
2023-04-30T01:50:57.515Z,101355.22
2023-04-30T01:53:32.976Z,101353.84
2023-04-30T01:56:03.962Z,101356.50
2023-04-30T01:58:31.148Z,101364.00
2023-04-30T02:00:57.629Z,101357.78
2023-04-30T02:03:24.034Z,101369.00
2023-04-30T02:05:50.661Z,101366.66
2023-04-30T02:08:16.999Z,101368.88
2023-04-30T02:10:43.293Z,101371.53
2023-04-30T02:13:09.620Z,101380.03
2023-04-30T02:15:35.925Z,101377.19
2023-04-30T02:18:02.313Z,101376.38
2023-04-30T02:20:28.664Z,101378.97
2023-04-30T02:22:54.983Z,101380.13
2023-04-30T02:25:21.300Z,101387.94
2023-04-30T02:27:47.601Z,101383.94
2023-04-30T02:30:13.911Z,101383.69
2023-04-30T02:32:40.215Z,101382.03
2023-04-30T02:35:06.815Z,101389.72
2023-04-30T02:37:33.155Z,101378.47
2023-04-30T02:39:59.526Z,101393.88
2023-04-30T02:42:25.923Z,101384.25
2023-04-30T02:44:52.238Z,101393.41
2023-04-30T02:47:18.559Z,101391.03
2023-04-30T02:49:44.857Z,101391.63
2023-04-30T02:52:11.172Z,101392.84
2023-04-30T02:54:37.526Z,101396.09
2023-04-30T02:57:03.924Z,101395.53
2023-04-30T02:59:30.259Z,101389.56
2023-04-30T03:01:56.588Z,101393.66
2023-04-30T03:04:22.893Z,101400.03
2023-04-30T03:06:49.200Z,101392.06
2023-04-30T03:09:15.527Z,101399.69
2023-04-30T03:11:41.825Z,101392.84
2023-04-30T03:14:08.184Z,101393.72
2023-04-30T03:16:34.584Z,101397.69
2023-04-30T03:19:00.908Z,101392.53
2023-04-30T03:21:27.205Z,101399.06
2023-04-30T03:23:53.508Z,101394.13
2023-04-30T03:26:20.370Z,101395.78
2023-04-30T03:28:46.708Z,101401.19
2023-04-30T03:31:13.070Z,101393.06
2023-04-30T03:33:39.456Z,101401.56
2023-04-30T03:36:06.066Z,101404.81
2023-04-30T03:38:32.368Z,101402.66
2023-04-30T03:40:58.677Z,101403.53
2023-04-30T03:43:24.986Z,101410.63
2023-04-30T03:45:51.338Z,101417.25
2023-04-30T03:48:18.004Z,101413.50
2023-04-30T03:50:44.656Z,101406.06
2023-04-30T03:53:10.979Z,101407.25
2023-04-30T03:55:37.624Z,101405.69
2023-04-30T03:58:04.042Z,101409.03
2023-04-30T04:00:30.460Z,101408.72
2023-04-30T04:02:58.669Z,101407.50
2023-04-30T04:05:25.320Z,101410.44
2023-04-30T04:07:51.699Z,101415.78
2023-04-30T04:10:18.006Z,101415.72
2023-04-30T04:12:44.306Z,101408.28
2023-04-30T04:15:10.740Z,101406.19
2023-04-30T04:17:37.052Z,101421.63
2023-04-30T04:20:03.515Z,101407.50
2023-04-30T04:22:29.827Z,101409.72
2023-04-30T04:24:56.136Z,101408.38
2023-04-30T04:27:22.446Z,101407.03
2023-04-30T04:29:48.794Z,101408.53
2023-04-30T04:32:15.153Z,101400.19
2023-04-30T04:34:41.464Z,101409.81
2023-04-30T04:37:07.763Z,101410.09
2023-04-30T04:39:34.076Z,101416.34
2023-04-30T04:42:00.375Z,101414.25
2023-04-30T04:44:26.688Z,101409.28
2023-04-30T04:46:53.172Z,101405.28
2023-04-30T04:49:20.104Z,101415.22
2023-04-30T04:51:46.414Z,101411.53
2023-04-30T04:54:12.752Z,101411.22
2023-04-30T04:56:39.040Z,101402.63
2023-04-30T04:59:05.463Z,101413.59
2023-04-30T05:01:31.873Z,101417.22
2023-04-30T05:03:58.402Z,101421.47
2023-04-30T05:06:24.871Z,101424.44
2023-04-30T05:08:51.199Z,101423.63
2023-04-30T05:11:17.523Z,101420.38
2023-04-30T05:13:43.837Z,101426.50
2023-04-30T05:16:10.203Z,101417.91
2023-04-30T05:18:36.540Z,101424.31
2023-04-30T05:21:02.868Z,101428.75
2023-04-30T05:23:29.182Z,101424.22
2023-04-30T05:25:55.521Z,101427.66
2023-04-30T05:28:21.827Z,101435.66
2023-04-30T05:30:48.125Z,101441.00
2023-04-30T05:33:14.472Z,101440.81
2023-04-30T05:35:40.757Z,101442.63
2023-04-30T05:38:07.083Z,101440.78
2023-04-30T05:40:33.385Z,101432.06
2023-04-30T05:42:59.715Z,101433.84
2023-04-30T05:45:26.040Z,101438.88
2023-04-30T05:47:52.549Z,101434.31
2023-04-30T05:50:19.096Z,101426.13
2023-04-30T05:52:45.416Z,101426.66
2023-04-30T05:55:11.712Z,101430.75
2023-04-30T05:57:38.034Z,101434.91
2023-04-30T06:00:04.827Z,101430.50
2023-04-30T06:02:31.263Z,101429.00
2023-04-30T06:04:57.833Z,101428.28
2023-04-30T06:07:24.185Z,101429.75
2023-04-30T06:09:50.516Z,101424.75
2023-04-30T06:12:16.836Z,101421.81
2023-04-30T06:14:43.145Z,101426.63
2023-04-30T06:17:09.458Z,101423.16
2023-04-30T06:19:35.757Z,101421.97
2023-04-30T06:22:02.060Z,101422.69
2023-04-30T06:24:28.348Z,101420.06
2023-04-30T06:26:54.652Z,101428.22
2023-04-30T06:29:20.970Z,101429.63
2023-04-30T06:31:47.378Z,101430.09
2023-04-30T06:34:13.745Z,101430.59
2023-04-30T06:36:40.058Z,101435.28
2023-04-30T06:39:06.428Z,101443.78
2023-04-30T06:41:32.803Z,101445.47
2023-04-30T06:43:59.111Z,101455.44
2023-04-30T06:46:25.509Z,101450.81
2023-04-30T06:48:51.901Z,101458.75
2023-04-30T06:51:18.220Z,101448.94
2023-04-30T06:53:44.562Z,101456.25
2023-04-30T06:56:10.856Z,101460.03
2023-04-30T06:58:37.226Z,101452.75
2023-04-30T07:01:03.619Z,101458.22
2023-04-30T07:03:30.055Z,101460.09
2023-04-30T07:05:56.632Z,101458.66
2023-04-30T07:08:22.970Z,101468.56
2023-04-30T07:10:49.269Z,101459.09
2023-04-30T07:13:15.565Z,101462.69
2023-04-30T07:15:42.041Z,101473.31
2023-04-30T07:18:08.504Z,101464.41
2023-04-30T07:20:34.975Z,101463.88
2023-04-30T07:23:01.314Z,101473.19
2023-04-30T07:25:27.695Z,101463.13
2023-04-30T07:27:55.268Z,101464.56
2023-04-30T07:30:22.941Z,101469.75
2023-04-30T07:32:50.779Z,101459.00
2023-04-30T07:35:17.256Z,101462.06
2023-04-30T07:37:43.585Z,101458.03
2023-04-30T07:40:11.206Z,101459.78
2023-04-30T07:42:37.579Z,101461.56
2023-04-30T07:45:04.230Z,101464.06
2023-04-30T07:47:30.583Z,101465.88
2023-04-30T07:49:57.227Z,101464.53
2023-04-30T07:52:23.677Z,101471.31
2023-04-30T07:54:49.975Z,101464.88
2023-04-30T07:57:16.279Z,101461.75
2023-04-30T07:59:42.641Z,101459.63
2023-04-30T08:02:09.717Z,101459.56
2023-04-30T08:04:36.149Z,101468.47
2023-04-30T08:07:03.232Z,101465.16
2023-04-30T08:09:29.594Z,101469.03
2023-04-30T08:11:55.940Z,101466.56
2023-04-30T08:14:22.360Z,101463.91
2023-04-30T08:16:48.734Z,101468.50
2023-04-30T08:19:15.103Z,101477.31
2023-04-30T08:21:41.492Z,101460.69
2023-04-30T08:24:07.776Z,101476.31
2023-04-30T08:26:34.118Z,101474.69
2023-04-30T08:29:00.412Z,101474.72
2023-04-30T08:31:26.762Z,101469.34
2023-04-30T08:33:53.112Z,101462.84
2023-04-30T08:36:19.415Z,101456.38
2023-04-30T08:38:45.718Z,101458.50
2023-04-30T08:41:13.495Z,101469.94
2023-04-30T08:43:41.122Z,101460.09
2023-04-30T08:46:07.781Z,101457.94
2023-04-30T08:48:34.702Z,101458.50
2023-04-30T08:51:02.106Z,101456.53
2023-04-30T08:53:30.210Z,101451.44
2023-04-30T08:55:56.680Z,101448.63
2023-04-30T08:58:23.126Z,101440.50
2023-04-30T09:00:49.568Z,101448.47
2023-04-30T09:03:16.040Z,101447.41
2023-04-30T09:05:42.495Z,101447.00
2023-04-30T09:08:08.930Z,101445.69
2023-04-30T09:10:35.816Z,101442.72
2023-04-30T09:13:04.605Z,101436.00
2023-04-30T09:15:31.973Z,101453.38
2023-04-30T09:18:18.316Z,101449.53
2023-04-30T09:20:55.093Z,101437.75
2023-04-30T09:23:21.475Z,101438.38
2023-04-30T09:25:47.783Z,101432.38
2023-04-30T09:28:14.190Z,101440.16
2023-04-30T09:30:41.504Z,101432.88
2023-04-30T09:33:10.875Z,101443.72
2023-04-30T09:35:40.022Z,101442.22
2023-04-30T09:38:06.377Z,101426.19
2023-04-30T09:40:41.053Z,101436.25
2023-04-30T09:43:08.080Z,101437.75
2023-04-30T09:45:47.795Z,101437.56
2023-04-30T09:48:18.680Z,101432.31
2023-04-30T09:50:45.178Z,101427.03
2023-04-30T09:53:13.742Z,101433.81
2023-04-30T09:55:44.496Z,101435.41
2023-04-30T09:58:11.757Z,101435.22
2023-04-30T10:00:38.871Z,101426.59
2023-04-30T10:03:13.423Z,101427.00
2023-04-30T10:05:48.004Z,101421.78
2023-04-30T10:08:44.211Z,101415.03
2023-04-30T10:11:14.889Z,101413.03
2023-04-30T10:13:46.992Z,101411.53
2023-04-30T10:16:28.177Z,101417.44
2023-04-30T10:18:57.130Z,101414.50
2023-04-30T10:21:25.994Z,101409.75
2023-04-30T10:23:54.109Z,101403.94
2023-04-30T10:26:20.696Z,101395.63
2023-04-30T10:28:49.931Z,101400.75
2023-04-30T10:31:17.431Z,101402.00
2023-04-30T10:33:54.671Z,101398.19
2023-04-30T10:36:48.772Z,101399.19
2023-04-30T10:39:18.823Z,101400.38
2023-04-30T10:41:45.752Z,101399.03
2023-04-30T10:44:12.175Z,101393.31
2023-04-30T10:46:39.201Z,101381.31
2023-04-30T10:49:05.699Z,101384.25
2023-04-30T10:51:51.368Z,101383.19
2023-04-30T10:54:26.047Z,101381.69
2023-04-30T10:56:52.423Z,101375.13
2023-04-30T10:59:18.792Z,101377.34
2023-04-30T11:01:58.498Z,101380.56
2023-04-30T11:04:25.808Z,101370.41
2023-04-30T11:07:01.044Z,101365.72
2023-04-30T11:09:40.681Z,101364.78
2023-04-30T11:12:26.033Z,101367.59
2023-04-30T11:14:52.358Z,101369.53
2023-04-30T11:17:23.634Z,101364.44
2023-04-30T11:19:51.399Z,101365.56
2023-04-30T11:22:19.795Z,101367.09
2023-04-30T11:24:58.727Z,101368.75
2023-04-30T11:27:33.431Z,101362.00
2023-04-30T11:30:00.875Z,101361.97
2023-04-30T11:32:33.121Z,101349.78
2023-04-30T11:35:01.213Z,101345.72
2023-04-30T11:37:35.500Z,101350.34
2023-04-30T11:40:06.595Z,101343.94
2023-04-30T11:42:33.202Z,101347.34
2023-04-30T11:45:06.608Z,101337.66
2023-04-30T11:47:42.817Z,101343.66
2023-04-30T11:50:10.627Z,101350.28
2023-04-30T11:52:37.016Z,101347.84
2023-04-30T11:55:13.763Z,101338.41
2023-04-30T11:57:41.793Z,101331.59
2023-04-30T12:00:16.038Z,101330.78
2023-04-30T12:02:44.507Z,101337.13
2023-04-30T12:05:18.961Z,101335.31
2023-04-30T12:07:47.338Z,101334.59
2023-04-30T12:10:13.667Z,101332.13
2023-04-30T12:12:40.339Z,101323.16
2023-04-30T12:15:14.460Z,101318.22
2023-04-30T12:17:41.030Z,101315.84
2023-04-30T12:20:11.928Z,101323.09
2023-04-30T12:22:38.457Z,101317.09
2023-04-30T12:25:11.778Z,101318.22
2023-04-30T12:27:38.153Z,101318.53
2023-04-30T12:30:08.862Z,101320.34
2023-04-30T12:32:45.458Z,101311.50
2023-04-30T12:35:17.560Z,101313.22
2023-04-30T12:38:04.641Z,101305.50
2023-04-30T12:40:31.189Z,101317.94
2023-04-30T12:43:02.340Z,101316.44
2023-04-30T12:45:51.683Z,101304.22
2023-04-30T12:48:19.785Z,101304.41
2023-04-30T12:50:55.545Z,101293.25
2023-04-30T12:53:22.504Z,101294.88
2023-04-30T12:56:09.123Z,101293.41
2023-04-30T12:58:37.003Z,101282.56
2023-04-30T13:01:10.342Z,101286.44
2023-04-30T13:03:37.013Z,101287.66
2023-04-30T13:06:03.489Z,101283.06
2023-04-30T13:08:30.774Z,101282.22
2023-04-30T13:10:57.776Z,101271.78
2023-04-30T13:13:24.304Z,101271.03
2023-04-30T13:15:50.704Z,101263.56
2023-04-30T13:18:17.028Z,101256.78
2023-04-30T13:20:44.525Z,101251.25
2023-04-30T13:23:10.951Z,101245.91
2023-04-30T13:25:38.425Z,101241.22
2023-04-30T13:28:04.839Z,101244.88
2023-04-30T13:30:31.346Z,101244.00
2023-04-30T13:32:57.730Z,101242.44
2023-04-30T13:35:24.080Z,101236.16
2023-04-30T13:37:50.395Z,101231.09
2023-04-30T13:40:16.713Z,101242.03
2023-04-30T13:42:43.034Z,101234.34
2023-04-30T13:45:09.731Z,101234.56
2023-04-30T13:47:36.091Z,101221.97
2023-04-30T13:50:03.477Z,101231.88
2023-04-30T13:52:29.842Z,101226.34
2023-04-30T13:54:56.220Z,101220.97
2023-04-30T13:57:23.264Z,101210.00
2023-04-30T13:59:50.076Z,101220.50
2023-04-30T14:02:16.700Z,101210.53
2023-04-30T14:04:51.469Z,101206.75
2023-04-30T14:07:24.669Z,101206.94
2023-04-30T14:09:51.020Z,101210.06
2023-04-30T14:12:17.315Z,101212.00
2023-04-30T14:14:43.632Z,101220.47
2023-04-30T14:17:09.970Z,101216.88
2023-04-30T14:19:36.270Z,101212.34
2023-04-30T14:22:02.561Z,101210.63
2023-04-30T14:24:28.854Z,101204.03
2023-04-30T14:26:55.158Z,101210.63
2023-04-30T14:29:21.948Z,101205.41
2023-04-30T14:31:48.344Z,101208.22
2023-04-30T14:34:14.652Z,101198.59
2023-04-30T14:36:40.968Z,101197.00
2023-04-30T14:39:07.310Z,101194.91
2023-04-30T14:41:35.020Z,101193.66
2023-04-30T14:44:01.421Z,101179.34
2023-04-30T14:46:27.982Z,101184.66
2023-04-30T14:48:54.502Z,101186.41
2023-04-30T14:51:20.803Z,101186.66
2023-04-30T14:53:47.090Z,101184.81
2023-04-30T14:56:13.469Z,101181.56
2023-04-30T14:58:39.776Z,101174.56
2023-04-30T15:01:06.212Z,101176.09
2023-04-30T15:03:32.656Z,101173.97
2023-04-30T15:05:59.176Z,101160.34
2023-04-30T15:08:25.556Z,101166.69
2023-04-30T15:10:51.843Z,101169.88
2023-04-30T15:13:18.144Z,101165.44
2023-04-30T15:15:44.500Z,101161.56
2023-04-30T15:18:10.943Z,101160.34
2023-04-30T15:20:37.235Z,101158.41
2023-04-30T15:23:03.543Z,101155.03
2023-04-30T15:25:29.904Z,101149.22
2023-04-30T15:27:56.226Z,101144.56
2023-04-30T15:30:22.606Z,101148.25
2023-04-30T15:32:50.194Z,101155.06
2023-04-30T15:35:17.065Z,101148.13
2023-04-30T15:37:43.368Z,101144.13
2023-04-30T15:40:09.874Z,101138.53
2023-04-30T15:42:36.212Z,101140.53
2023-04-30T15:45:02.566Z,101135.03
2023-04-30T15:47:28.922Z,101133.50
2023-04-30T15:49:55.443Z,101129.16
2023-04-30T15:52:21.998Z,101134.91
2023-04-30T15:54:48.292Z,101133.38
2023-04-30T15:57:14.689Z,101129.66
2023-04-30T15:59:40.975Z,101127.09
2023-04-30T16:02:07.342Z,101133.63
2023-04-30T16:04:33.700Z,101125.59
2023-04-30T16:07:00.276Z,101127.72
2023-04-30T16:09:26.847Z,101121.59
2023-04-30T16:11:53.507Z,101124.53
2023-04-30T16:14:19.780Z,101123.75
2023-04-30T16:16:46.158Z,101117.03
2023-04-30T16:19:12.538Z,101114.09
2023-04-30T16:21:39.222Z,101119.81
2023-04-30T16:24:09.149Z,101107.78
2023-04-30T16:26:35.791Z,101113.16
2023-04-30T16:29:02.674Z,101111.03
2023-04-30T16:31:28.997Z,101110.38
2023-04-30T16:33:55.304Z,101108.09
2023-04-30T16:36:22.017Z,101106.78
2023-04-30T16:38:48.324Z,101104.78
2023-04-30T16:41:16.662Z,101101.25
2023-04-30T16:43:43.806Z,101097.41
2023-04-30T16:46:10.344Z,101090.63
2023-04-30T16:48:37.601Z,101090.81
2023-04-30T16:51:04.477Z,101094.00
2023-04-30T16:53:30.792Z,101086.16
2023-04-30T16:55:57.108Z,101090.38
2023-04-30T16:58:23.414Z,101087.06
2023-04-30T17:00:49.738Z,101083.59
2023-04-30T17:03:16.131Z,101081.97
2023-04-30T17:05:42.524Z,101081.97
2023-04-30T17:08:08.821Z,101082.91
2023-04-30T17:10:35.653Z,101082.56
2023-04-30T17:13:01.956Z,101081.22
2023-04-30T17:15:28.282Z,101079.56
2023-04-30T17:17:56.387Z,101073.31
2023-04-30T17:20:22.766Z,101075.94
2023-04-30T17:22:49.098Z,101071.81
2023-04-30T17:25:15.385Z,101070.09
2023-04-30T17:27:41.664Z,101071.38
2023-04-30T17:30:08.378Z,101071.28
2023-04-30T17:32:34.689Z,101068.88
2023-04-30T17:35:00.985Z,101061.81
2023-04-30T17:37:27.283Z,101066.47
2023-04-30T17:39:53.670Z,101067.25
2023-04-30T17:42:20.044Z,101065.84
2023-04-30T17:44:46.339Z,101056.97
2023-04-30T17:47:14.324Z,101071.50
2023-04-30T17:49:42.380Z,101065.75
2023-04-30T17:52:08.708Z,101066.69
2023-04-30T17:54:36.019Z,101059.06
2023-04-30T17:57:02.321Z,101064.16
2023-04-30T17:59:29.410Z,101063.09
2023-04-30T18:01:56.447Z,101055.91
2023-04-30T18:04:22.845Z,101054.25
2023-04-30T18:06:49.276Z,101059.66
2023-04-30T18:09:15.617Z,101058.88
2023-04-30T18:11:42.156Z,101064.91
2023-04-30T18:14:08.473Z,101059.94
2023-04-30T18:16:34.820Z,101059.09
2023-04-30T18:19:01.126Z,101058.38
2023-04-30T18:21:27.427Z,101053.19
2023-04-30T18:23:54.786Z,101054.38
2023-04-30T18:26:22.128Z,101046.84
2023-04-30T18:28:48.776Z,101049.66
2023-04-30T18:31:15.133Z,101053.38
2023-04-30T18:33:41.534Z,101059.88
2023-04-30T18:36:07.897Z,101062.31
2023-04-30T18:38:34.551Z,101059.59
2023-04-30T18:41:01.423Z,101055.19
2023-04-30T18:43:28.037Z,101049.69
2023-04-30T18:45:54.455Z,101049.66
2023-04-30T18:48:20.950Z,101052.47
2023-04-30T18:50:47.256Z,101044.84
2023-04-30T18:53:13.560Z,101041.22
2023-04-30T18:55:39.876Z,101044.50
2023-04-30T18:58:06.223Z,101047.31
2023-04-30T19:00:32.521Z,101055.38
2023-04-30T19:02:58.945Z,101048.00
2023-04-30T19:05:25.445Z,101051.56
2023-04-30T19:07:51.745Z,101045.81
2023-04-30T19:10:18.105Z,101053.31
2023-04-30T19:12:44.394Z,101057.38
2023-04-30T19:15:13.858Z,101055.22
2023-04-30T19:17:40.933Z,101052.09
2023-04-30T19:20:07.918Z,101047.06
2023-04-30T19:22:34.330Z,101053.03
2023-04-30T19:25:00.609Z,101065.13
2023-04-30T19:27:26.897Z,101061.22
2023-04-30T19:29:53.578Z,101067.03
2023-04-30T19:32:20.765Z,101069.31
2023-04-30T19:34:47.244Z,101059.09
2023-04-30T19:37:13.692Z,101066.25
2023-04-30T19:39:40.001Z,101069.63
2023-04-30T19:42:09.340Z,101079.69
2023-04-30T19:44:35.632Z,101069.19
2023-04-30T19:47:01.952Z,101068.34
2023-04-30T19:49:28.283Z,101068.00
2023-04-30T19:51:54.617Z,101065.13
2023-04-30T19:54:21.167Z,101066.41
2023-04-30T19:56:47.550Z,101066.53
2023-04-30T19:59:13.876Z,101058.13
2023-04-30T20:01:40.219Z,101065.44
2023-04-30T20:04:06.897Z,101063.63
2023-04-30T20:06:33.470Z,101068.31
2023-04-30T20:09:00.845Z,101061.47
2023-04-30T20:11:27.359Z,101068.25
2023-04-30T20:13:56.559Z,101060.94
2023-04-30T20:16:22.997Z,101060.75
2023-04-30T20:18:49.390Z,101057.47
2023-04-30T20:21:16.251Z,101053.97
2023-04-30T20:23:43.062Z,101049.34
2023-04-30T20:26:09.608Z,101054.00
2023-04-30T20:28:35.969Z,101059.75
2023-04-30T20:31:02.331Z,101057.31
2023-04-30T20:33:28.744Z,101052.16
2023-04-30T20:35:55.333Z,101052.13
2023-04-30T20:38:21.639Z,101047.81
2023-04-30T20:40:48.144Z,101047.78
2023-04-30T20:43:14.548Z,101040.50
2023-04-30T20:45:43.521Z,101039.13
2023-04-30T20:48:09.930Z,101032.91
2023-04-30T20:50:36.794Z,101034.81
2023-04-30T20:53:03.214Z,101031.56
2023-04-30T20:55:29.595Z,101027.81
2023-04-30T20:57:55.908Z,101025.38
2023-04-30T21:00:22.293Z,101024.00
2023-04-30T21:02:48.703Z,101031.09
2023-04-30T21:05:15.176Z,101022.44
2023-04-30T21:07:41.503Z,101027.09
2023-04-30T21:10:08.349Z,101020.31
2023-04-30T21:12:35.241Z,101017.66
2023-04-30T21:15:01.631Z,101020.59
2023-04-30T21:17:28.048Z,101014.38
2023-04-30T21:19:54.633Z,101027.41
2023-04-30T21:22:21.062Z,101019.81
2023-04-30T21:24:47.361Z,101022.72
2023-04-30T21:27:13.669Z,101022.72
2023-04-30T21:29:42.663Z,101018.59
2023-04-30T21:32:09.544Z,101023.72
2023-04-30T21:34:35.974Z,101012.66
2023-04-30T21:37:02.407Z,101017.22
2023-04-30T21:39:29.774Z,101027.78
2023-04-30T21:41:56.075Z,101017.84
2023-04-30T21:44:22.371Z,101012.44
2023-04-30T21:46:48.697Z,101015.16
2023-04-30T21:49:15.287Z,101005.06
2023-04-30T21:51:41.571Z,101004.47
2023-04-30T21:54:07.885Z,101000.09
2023-04-30T21:56:34.210Z,100999.56
2023-04-30T21:59:00.568Z,101002.78
2023-04-30T22:01:26.908Z,101003.81
2023-04-30T22:03:53.911Z,100998.94
2023-04-30T22:06:20.443Z,100999.47
2023-04-30T22:08:46.763Z,101000.81
2023-04-30T22:11:13.215Z,100996.13
2023-04-30T22:13:39.502Z,100997.16
2023-04-30T22:16:06.151Z,100996.84
2023-04-30T22:18:32.460Z,100992.16
2023-04-30T22:20:58.757Z,100989.66
2023-04-30T22:23:25.049Z,100995.19
2023-04-30T22:25:51.382Z,100993.47
2023-04-30T22:28:17.690Z,100984.69
2023-04-30T22:30:43.989Z,100984.06
2023-04-30T22:33:10.771Z,100981.31
2023-04-30T22:35:37.374Z,100982.31
2023-04-30T22:38:04.258Z,100977.97
2023-04-30T22:40:35.115Z,100977.28
2023-04-30T22:43:01.665Z,100987.19
2023-04-30T22:45:29.899Z,100979.91
2023-04-30T22:47:58.033Z,100968.63
2023-04-30T22:50:25.778Z,100976.47
2023-04-30T22:52:52.809Z,100971.13
2023-04-30T22:55:19.139Z,100963.16
2023-04-30T22:57:45.460Z,100964.72
2023-04-30T23:00:12.466Z,100955.28
2023-04-30T23:02:38.803Z,100951.91
2023-04-30T23:05:05.584Z,100955.34
2023-04-30T23:07:31.933Z,100949.75
2023-04-30T23:09:58.605Z,100951.34
2023-04-30T23:12:25.145Z,100945.31
2023-04-30T23:14:51.474Z,100945.78
2023-04-30T23:17:17.831Z,100948.38
2023-04-30T23:19:44.182Z,100952.66
2023-04-30T23:22:10.476Z,100951.06
2023-04-30T23:24:36.793Z,100948.13
2023-04-30T23:27:03.224Z,100945.31
2023-04-30T23:29:29.622Z,100942.22
2023-04-30T23:31:55.945Z,100942.97
2023-04-30T23:34:22.319Z,100944.50
2023-04-30T23:36:48.679Z,100947.56
2023-04-30T23:39:15.021Z,100944.19
2023-04-30T23:41:41.318Z,100940.53
2023-04-30T23:44:07.856Z,100939.66
2023-04-30T23:46:34.188Z,100937.09
2023-04-30T23:49:00.534Z,100935.41
2023-04-30T23:51:26.854Z,100927.28
2023-04-30T23:53:53.135Z,100925.88
2023-04-30T23:56:19.463Z,100931.47
2023-04-30T23:58:45.771Z,100927.63
